Buoy 41936

sailwx.info

Track history (hours):
 
Tides and Currents Weather Stations Pressure Air Temp Water Temp Dewpoint Dewpoint Depression Visibility Wind Speed Wind Dir Waves Ship Positions

Drifting buoy 41936

Last reported at 2016-Aug-30 01:00 UTC. Time now 2016-Aug-30 07:23 UTC.
Position N 41°17' W 045°26'.

Barometer 1019.9 mb

Date/timePositionNaut miles runAvg speedWind from/ knotsBaromVisibWave heightAir tempDewpointWater temp
2016-Aug-30 01:00N 41°17' W 045°26'0 0.4 1019.9
2016-Aug-30 00:00N 41°16' W 045°26'2 1.9 1020.2
2016-Aug-29 23:00N 41°16' W 045°23'4 1.2 1020.3
2016-Aug-29 20:00N 41°15' W 045°19'0 0.5 1020.3
2016-Aug-29 19:00N 41°14' W 045°19'3 3.2 1020.3
2016-Aug-29 18:00N 41°15' W 045°15'8 1.4 1020.8
2016-Aug-29 12:00N 41°18' W 045°05'1 0.7 1020.6
2016-Aug-29 11:00N 41°18' W 045°06'1 0.4 1020.3
2016-Aug-29 09:00N 41°19' W 045°05'1 0.6 1019.3
2016-Aug-29 08:00N 41°19' W 045°05'1 0.8 1018.9
2016-Aug-29 07:00N 41°19' W 045°04'0 0.0 1018.5
2016-Aug-29 06:00N 41°19' W 045°04'2 2.2 1018.5
2016-Aug-29 05:00N 41°19' W 045°01'2 0.4 1018.5
2016-Aug-29 00:00N 41°19' W 044°58'1 0.5 1017.9
2016-Aug-28 22:00N 41°20' W 044°57'1 1.2 1016.5
2016-Aug-28 21:00N 41°21' W 044°56'1 0.9 1015.8
2016-Aug-28 20:00N 41°21' W 044°55'2 2.4 1015.5
2016-Aug-28 19:00N 41°24' W 044°54'0 0.0 1014.9
2016-Aug-28 18:00N 41°24' W 044°54'0 0.0 1014.3
2016-Aug-28 16:00N 41°24' W 044°54'3 2.9 1013.5
2016-Aug-28 15:00N 41°27' W 044°54'1 0.2 1013.3
2016-Aug-28 12:00N 41°27' W 044°54'2 1.7 1012.9
2016-Aug-28 11:00N 41°25' W 044°55'1 0.8 1013.2
2016-Aug-28 10:00N 41°25' W 044°55'0 0.2 1012.7
2016-Aug-28 08:00N 41°24' W 044°55'1 0.7 1012.5
2016-Aug-28 07:00N 41°24' W 044°55'3 0.4 1011.9
2016-Aug-28 01:00N 41°21' W 044°54'2 0.5 1016.4
2016-Aug-27 21:00N 41°19' W 044°53'3 1.3 1017.8
2016-Aug-27 19:00N 41°17' W 044°52'1 0.7 1018.7
2016-Aug-27 17:00N 41°16' W 044°51'0 0.1 1019.6
2016-Aug-27 15:00N 41°15' W 044°51'4 1.9 1019.8
2016-Aug-27 13:00N 41°13' W 044°47'2 0.6 1021.3
2016-Aug-27 10:00N 41°12' W 044°45'1 0.9 1021.9
2016-Aug-27 09:00N 41°11' W 044°45'1 0.6 1021.5
2016-Aug-27 08:00N 41°11' W 044°44'1 1.5 1021.3
2016-Aug-27 07:00N 41°10' W 044°42'5 4.7 1021.5
2016-Aug-27 06:00N 41°08' W 044°37'5 4.8 1021.8
2016-Aug-27 05:00N 41°10' W 044°43'6 1.1 1022.1
2016-Aug-27 00:00N 41°07' W 044°36'2 0.9 1023.5
2016-Aug-26 22:00N 41°06' W 044°34'1 1.4 1023.1
2016-Aug-26 21:00N 41°05' W 044°33'1 0.7 1023.5
2016-Aug-26 20:00N 41°05' W 044°32'3 3.1 1023.3
2016-Aug-26 19:00N 41°04' W 044°28'3 0.8 1023.1
2016-Aug-26 16:00N 41°02' W 044°25'2 2.2 1023.8
2016-Aug-26 15:00N 41°03' W 044°22'2 1.7 1024.2
2016-Aug-26 14:00N 41°02' W 044°20'0 0.3 1024.4
2016-Aug-26 13:00N 41°02' W 044°20'2 1.9 1024.5
2016-Aug-26 12:00N 41°02' W 044°17'1 1.0 1024.2
2016-Aug-26 11:00N 41°02' W 044°16'1 1.0 1024.0
2016-Aug-26 10:00N 41°01' W 044°15'1 0.8 1024.1
2016-Aug-26 09:00N 41°02' W 044°14'1 0.7 1024.1
2016-Aug-26 07:00N 41°01' W 044°12'3 2.8 1022.8
2016-Aug-26 06:00N 41°01' W 044°09'4 0.9 1022.8
2016-Aug-26 01:00N 40°60' W 044°03'1 0.9 1023.1
2016-Aug-26 00:00N 40°60' W 044°02'2 1.6 1023.1
2016-Aug-25 23:00N 40°60' W 043°60'1 0.7 1022.9
2016-Aug-25 22:00N 40°59' W 043°60'2 1.5 1022.1
2016-Aug-25 21:00N 40°59' W 043°58'1 0.6 1021.8
2016-Aug-25 20:00N 40°60' W 043°57'2 0.9 1021.3
2016-Aug-25 18:00N 40°59' W 043°55'1 0.7 1020.7
2016-Aug-25 16:00N 40°59' W 043°53'3 0.9 1020.3
2016-Aug-25 13:00N 40°60' W 043°50'0 0.0 1020.3
2016-Aug-25 12:00N 40°60' W 043°50'0 0.2 1020.7
2016-Aug-25 10:00N 40°60' W 043°49'2 2.3 1020.2
2016-Aug-25 09:00N 40°60' W 043°46'1 1.1 1019.6
2016-Aug-25 08:00N 40°59' W 043°45'0 0.0 1019.3
2016-Aug-25 07:00N 40°59' W 043°45'2 2.0 1019.1
2016-Aug-25 06:00N 40°58' W 043°43'4 1.9 1018.9
2016-Aug-25 04:00N 40°58' W 043°38'0 0.0 1019.3
2016-Aug-25 01:00N 40°58' W 043°38'2 0.9 1019.5
2016-Aug-24 23:00N 40°58' W 043°35'1 1.0 1019.7
2016-Aug-24 22:00N 40°58' W 043°34'0 0.0 1019.4
2016-Aug-24 20:00N 40°58' W 043°34'0 0.0 1019.1
2016-Aug-24 19:00N 40°58' W 043°34'0 0.2 1019.3
2016-Aug-24 17:00N 40°58' W 043°35'0 0.0 1019.5
2016-Aug-24 16:00N 40°58' W 043°35'1 0.7 1019.9
2016-Aug-24 14:00N 40°57' W 043°35'2 1.0 1020.5
2016-Aug-24 12:00N 40°55' W 043°34'1 0.7 1021.0
2016-Aug-24 10:00N 40°54' W 043°33'2 2.4 1021.2
2016-Aug-24 09:00N 40°52' W 043°31'0 0.0 1020.3
2016-Aug-24 07:00N 40°52' W 043°31'1 1.0 1020.1
2016-Aug-24 06:00N 40°51' W 043°30'3 0.5 1020.4
2016-Aug-24 00:00N 40°52' W 043°27'2 1.9 1020.4
2016-Aug-23 23:00N 40°53' W 043°28'1 1.2 1020.1
2016-Aug-23 22:00N 40°52' W 043°27'0 0.0 1019.8
2016-Aug-23 21:00N 40°52' W 043°27'1 1.0 1019.5
2016-Aug-23 20:00N 40°52' W 043°29'0 0.0 1019.4
2016-Aug-23 19:00N 40°52' W 043°29'2 1.0 1019.4
2016-Aug-23 17:00N 40°51' W 043°31'0 0.0 1019.4
2016-Aug-23 16:00N 40°51' W 043°31'5 1.2 1019.9
2016-Aug-23 12:00N 40°46' W 043°30'2 1.9 1021.2
2016-Aug-23 11:00N 40°44' W 043°30'2 1.7 1021.2
2016-Aug-23 10:00N 40°43' W 043°28'3 2.5 1021.8
2016-Aug-23 09:00N 40°42' W 043°25'2 0.8 1021.8
2016-Aug-23 07:00N 40°40' W 043°24'2 2.1 1022.3
2016-Aug-23 06:00N 40°39' W 043°21'0 0.1 1022.7
2016-Aug-23 04:00N 40°39' W 043°22'4 1.4 1023.7
2016-Aug-23 01:00N 40°36' W 043°20'2 2.3 1024.3
2016-Aug-23 00:00N 40°34' W 043°18'1 0.9 1024.5
2016-Aug-22 23:00N 40°33' W 043°17'3 1.4 1024.9
2016-Aug-22 21:00N 40°31' W 043°15'1 0.8 1024.4
2016-Aug-22 20:00N 40°30' W 043°16'1 0.7 1024.5
2016-Aug-22 19:00N 40°30' W 043°15'3 3.2 1024.3
2016-Aug-22 18:00N 40°27' W 043°14'0 0.0 1024.5
2016-Aug-22 16:00N 40°27' W 043°14'5 1.6 1025.3
2016-Aug-22 13:00N 40°23' W 043°09'0 0.2 1025.6
2016-Aug-22 12:00N 40°24' W 043°09'1 1.4 1025.6
2016-Aug-22 11:00N 40°22' W 043°08'0 0.3 1025.5
2016-Aug-22 10:00N 40°22' W 043°09'1 0.9 1025.6
2016-Aug-22 09:00N 40°22' W 043°08'1 0.5 1026.0
2016-Aug-22 08:00N 40°22' W 043°07'1 1.2 1025.3
2016-Aug-22 07:00N 40°21' W 043°07'0 0.0 1025.3
2016-Aug-22 06:00N 40°21' W 043°07'3 2.7 1024.9
2016-Aug-22 05:00N 40°19' W 043°04'3 2.6 1024.7
2016-Aug-22 04:00N 40°21' W 043°06'4 0.6 1024.9
2016-Aug-21 22:00N 40°18' W 043°03'1 0.6 1025.4
2016-Aug-21 20:00N 40°18' W 043°01'1 0.7 1024.9
2016-Aug-21 19:00N 40°17' W 043°01'1 0.4 1024.3
2016-Aug-21 17:00N 40°18' W 043°00'0 0.0 1024.3
2016-Aug-21 16:00N 40°18' W 043°00'2 0.5 1023.8
2016-Aug-21 13:00N 40°18' W 042°58'0 0.2 1023.8
2016-Aug-21 12:00N 40°18' W 042°58'1 0.4 1023.5
2016-Aug-21 10:00N 40°19' W 042°59'1 0.5 1022.7
2016-Aug-21 08:00N 40°20' W 042°58'1 0.8 1021.4
2016-Aug-21 07:00N 40°20' W 042°57'2 0.8 1020.6
2016-Aug-21 05:00N 40°21' W 042°59'0 0.1 1019.9
2016-Aug-21 01:00N 40°21' W 042°59'1 0.3 1019.1
2016-Aug-20 23:00N 40°21' W 042°59'1 0.5 1018.4
2016-Aug-20 21:00N 40°21' W 042°60'1 0.1 1016.7
2016-Aug-20 15:00N 40°21' W 043°00'1 0.7 1014.5
2016-Aug-20 14:00N 40°22' W 043°00'0 0.1 1013.9
2016-Aug-20 13:00N 40°22' W 043°00'0 0.1 1013.8
2016-Aug-20 12:00N 40°22' W 043°00'1 0.6 1012.8
2016-Aug-20 11:00N 40°22' W 043°01'0 0.3 1012.2
2016-Aug-20 10:00N 40°22' W 043°01'1 0.3 1011.6
2016-Aug-20 08:00N 40°22' W 043°02'1 0.8 1010.2
2016-Aug-20 07:00N 40°23' W 043°01'2 1.6 1009.4
2016-Aug-20 06:00N 40°22' W 043°03'3 2.6 1008.9
2016-Aug-20 05:00N 40°20' W 043°05'   1008.5
Track history (hours):
 
Tides and Currents Weather Stations Pressure Air Temp Water Temp Dewpoint Dewpoint Depression Visibility Wind Speed Wind Dir Waves Ship Positions

Drifting buoy 41936

Last reported at 2016-Aug-30 01:00 UTC. Time now 2016-Aug-30 07:23 UTC.
Position N 41°17' W 045°26'.

Barometer 1019.9 mb

Date/timePositionNaut miles runAvg speedWind from/ knotsBaromVisibWave heightAir tempDewpointWater temp
2016-Aug-30 01:00N 41°17' W 045°26'0 0.4 1019.9
2016-Aug-30 00:00N 41°16' W 045°26'2 1.9 1020.2
2016-Aug-29 23:00N 41°16' W 045°23'4 1.2 1020.3
2016-Aug-29 20:00N 41°15' W 045°19'0 0.5 1020.3
2016-Aug-29 19:00N 41°14' W 045°19'3 3.2 1020.3
2016-Aug-29 18:00N 41°15' W 045°15'8 1.4 1020.8
2016-Aug-29 12:00N 41°18' W 045°05'1 0.7 1020.6
2016-Aug-29 11:00N 41°18' W 045°06'1 0.4 1020.3
2016-Aug-29 09:00N 41°19' W 045°05'1 0.6 1019.3
2016-Aug-29 08:00N 41°19' W 045°05'1 0.8 1018.9
2016-Aug-29 07:00N 41°19' W 045°04'0 0.0 1018.5
2016-Aug-29 06:00N 41°19' W 045°04'2 2.2 1018.5
2016-Aug-29 05:00N 41°19' W 045°01'2 0.4 1018.5
2016-Aug-29 00:00N 41°19' W 044°58'1 0.5 1017.9
2016-Aug-28 22:00N 41°20' W 044°57'1 1.2 1016.5
2016-Aug-28 21:00N 41°21' W 044°56'1 0.9 1015.8
2016-Aug-28 20:00N 41°21' W 044°55'2 2.4 1015.5
2016-Aug-28 19:00N 41°24' W 044°54'0 0.0 1014.9
2016-Aug-28 18:00N 41°24' W 044°54'0 0.0 1014.3
2016-Aug-28 16:00N 41°24' W 044°54'3 2.9 1013.5
2016-Aug-28 15:00N 41°27' W 044°54'1 0.2 1013.3
2016-Aug-28 12:00N 41°27' W 044°54'2 1.7 1012.9
2016-Aug-28 11:00N 41°25' W 044°55'1 0.8 1013.2
2016-Aug-28 10:00N 41°25' W 044°55'0 0.2 1012.7
2016-Aug-28 08:00N 41°24' W 044°55'1 0.7 1012.5
2016-Aug-28 07:00N 41°24' W 044°55'3 0.4 1011.9
2016-Aug-28 01:00N 41°21' W 044°54'2 0.5 1016.4
2016-Aug-27 21:00N 41°19' W 044°53'3 1.3 1017.8
2016-Aug-27 19:00N 41°17' W 044°52'1 0.7 1018.7
2016-Aug-27 17:00N 41°16' W 044°51'0 0.1 1019.6
2016-Aug-27 15:00N 41°15' W 044°51'4 1.9 1019.8
2016-Aug-27 13:00N 41°13' W 044°47'2 0.6 1021.3
2016-Aug-27 10:00N 41°12' W 044°45'1 0.9 1021.9
2016-Aug-27 09:00N 41°11' W 044°45'1 0.6 1021.5
2016-Aug-27 08:00N 41°11' W 044°44'1 1.5 1021.3
2016-Aug-27 07:00N 41°10' W 044°42'5 4.7 1021.5
2016-Aug-27 06:00N 41°08' W 044°37'5 4.8 1021.8
2016-Aug-27 05:00N 41°10' W 044°43'6 1.1 1022.1
2016-Aug-27 00:00N 41°07' W 044°36'2 0.9 1023.5
2016-Aug-26 22:00N 41°06' W 044°34'1 1.4 1023.1
2016-Aug-26 21:00N 41°05' W 044°33'1 0.7 1023.5
2016-Aug-26 20:00N 41°05' W 044°32'3 3.1 1023.3
2016-Aug-26 19:00N 41°04' W 044°28'3 0.8 1023.1
2016-Aug-26 16:00N 41°02' W 044°25'2 2.2 1023.8
2016-Aug-26 15:00N 41°03' W 044°22'2 1.7 1024.2
2016-Aug-26 14:00N 41°02' W 044°20'0 0.3 1024.4
2016-Aug-26 13:00N 41°02' W 044°20'2 1.9 1024.5
2016-Aug-26 12:00N 41°02' W 044°17'1 1.0 1024.2
2016-Aug-26 11:00N 41°02' W 044°16'1 1.0 1024.0
2016-Aug-26 10:00N 41°01' W 044°15'1 0.8 1024.1
2016-Aug-26 09:00N 41°02' W 044°14'1 0.7 1024.1
2016-Aug-26 07:00N 41°01' W 044°12'3 2.8 1022.8
2016-Aug-26 06:00N 41°01' W 044°09'4 0.9 1022.8
2016-Aug-26 01:00N 40°60' W 044°03'1 0.9 1023.1
2016-Aug-26 00:00N 40°60' W 044°02'2 1.6 1023.1
2016-Aug-25 23:00N 40°60' W 043°60'1 0.7 1022.9
2016-Aug-25 22:00N 40°59' W 043°60'2 1.5 1022.1
2016-Aug-25 21:00N 40°59' W 043°58'1 0.6 1021.8
2016-Aug-25 20:00N 40°60' W 043°57'2 0.9 1021.3
2016-Aug-25 18:00N 40°59' W 043°55'1 0.7 1020.7
2016-Aug-25 16:00N 40°59' W 043°53'3 0.9 1020.3
2016-Aug-25 13:00N 40°60' W 043°50'0 0.0 1020.3
2016-Aug-25 12:00N 40°60' W 043°50'0 0.2 1020.7
2016-Aug-25 10:00N 40°60' W 043°49'2 2.3 1020.2
2016-Aug-25 09:00N 40°60' W 043°46'1 1.1 1019.6
2016-Aug-25 08:00N 40°59' W 043°45'0 0.0 1019.3
2016-Aug-25 07:00N 40°59' W 043°45'2 2.0 1019.1
2016-Aug-25 06:00N 40°58' W 043°43'4 1.9 1018.9
2016-Aug-25 04:00N 40°58' W 043°38'0 0.0 1019.3
2016-Aug-25 01:00N 40°58' W 043°38'2 0.9 1019.5
2016-Aug-24 23:00N 40°58' W 043°35'1 1.0 1019.7
2016-Aug-24 22:00N 40°58' W 043°34'0 0.0 1019.4
2016-Aug-24 20:00N 40°58' W 043°34'0 0.0 1019.1
2016-Aug-24 19:00N 40°58' W 043°34'0 0.2 1019.3
2016-Aug-24 17:00N 40°58' W 043°35'0 0.0 1019.5
2016-Aug-24 16:00N 40°58' W 043°35'1 0.7 1019.9
2016-Aug-24 14:00N 40°57' W 043°35'2 1.0 1020.5
2016-Aug-24 12:00N 40°55' W 043°34'1 0.7 1021.0
2016-Aug-24 10:00N 40°54' W 043°33'2 2.4 1021.2
2016-Aug-24 09:00N 40°52' W 043°31'0 0.0 1020.3
2016-Aug-24 07:00N 40°52' W 043°31'1 1.0 1020.1
2016-Aug-24 06:00N 40°51' W 043°30'3 0.5 1020.4
2016-Aug-24 00:00N 40°52' W 043°27'2 1.9 1020.4
2016-Aug-23 23:00N 40°53' W 043°28'1 1.2 1020.1
2016-Aug-23 22:00N 40°52' W 043°27'0 0.0 1019.8
2016-Aug-23 21:00N 40°52' W 043°27'1 1.0 1019.5
2016-Aug-23 20:00N 40°52' W 043°29'0 0.0 1019.4
2016-Aug-23 19:00N 40°52' W 043°29'2 1.0 1019.4
2016-Aug-23 17:00N 40°51' W 043°31'0 0.0 1019.4
2016-Aug-23 16:00N 40°51' W 043°31'5 1.2 1019.9
2016-Aug-23 12:00N 40°46' W 043°30'2 1.9 1021.2
2016-Aug-23 11:00N 40°44' W 043°30'2 1.7 1021.2
2016-Aug-23 10:00N 40°43' W 043°28'3 2.5 1021.8
2016-Aug-23 09:00N 40°42' W 043°25'2 0.8 1021.8
2016-Aug-23 07:00N 40°40' W 043°24'2 2.1 1022.3
2016-Aug-23 06:00N 40°39' W 043°21'0 0.1 1022.7
2016-Aug-23 04:00N 40°39' W 043°22'4 1.4 1023.7
2016-Aug-23 01:00N 40°36' W 043°20'2 2.3 1024.3
2016-Aug-23 00:00N 40°34' W 043°18'1 0.9 1024.5
2016-Aug-22 23:00N 40°33' W 043°17'3 1.4 1024.9
2016-Aug-22 21:00N 40°31' W 043°15'1 0.8 1024.4
2016-Aug-22 20:00N 40°30' W 043°16'1 0.7 1024.5
2016-Aug-22 19:00N 40°30' W 043°15'3 3.2 1024.3
2016-Aug-22 18:00N 40°27' W 043°14'0 0.0 1024.5
2016-Aug-22 16:00N 40°27' W 043°14'5 1.6 1025.3
2016-Aug-22 13:00N 40°23' W 043°09'0 0.2 1025.6
2016-Aug-22 12:00N 40°24' W 043°09'1 1.4 1025.6
2016-Aug-22 11:00N 40°22' W 043°08'0 0.3 1025.5
2016-Aug-22 10:00N 40°22' W 043°09'1 0.9 1025.6
2016-Aug-22 09:00N 40°22' W 043°08'1 0.5 1026.0
2016-Aug-22 08:00N 40°22' W 043°07'1 1.2 1025.3
2016-Aug-22 07:00N 40°21' W 043°07'0 0.0 1025.3
2016-Aug-22 06:00N 40°21' W 043°07'3 2.7 1024.9
2016-Aug-22 05:00N 40°19' W 043°04'3 2.6 1024.7
2016-Aug-22 04:00N 40°21' W 043°06'4 0.6 1024.9
2016-Aug-21 22:00N 40°18' W 043°03'1 0.6 1025.4
2016-Aug-21 20:00N 40°18' W 043°01'1 0.7 1024.9
2016-Aug-21 19:00N 40°17' W 043°01'1 0.4 1024.3
2016-Aug-21 17:00N 40°18' W 043°00'0 0.0 1024.3
2016-Aug-21 16:00N 40°18' W 043°00'2 0.5 1023.8
2016-Aug-21 13:00N 40°18' W 042°58'0 0.2 1023.8
2016-Aug-21 12:00N 40°18' W 042°58'1 0.4 1023.5
2016-Aug-21 10:00N 40°19' W 042°59'1 0.5 1022.7
2016-Aug-21 08:00N 40°20' W 042°58'1 0.8 1021.4
2016-Aug-21 07:00N 40°20' W 042°57'2 0.8 1020.6
2016-Aug-21 05:00N 40°21' W 042°59'0 0.1 1019.9
2016-Aug-21 01:00N 40°21' W 042°59'1 0.3 1019.1
2016-Aug-20 23:00N 40°21' W 042°59'1 0.5 1018.4
2016-Aug-20 21:00N 40°21' W 042°60'1 0.1 1016.7
2016-Aug-20 15:00N 40°21' W 043°00'1 0.7 1014.5
2016-Aug-20 14:00N 40°22' W 043°00'0 0.1 1013.9
2016-Aug-20 13:00N 40°22' W 043°00'0 0.1 1013.8
2016-Aug-20 12:00N 40°22' W 043°00'1 0.6 1012.8
2016-Aug-20 11:00N 40°22' W 043°01'0 0.3 1012.2
2016-Aug-20 10:00N 40°22' W 043°01'1 0.3 1011.6
2016-Aug-20 08:00N 40°22' W 043°02'1 0.8 1010.2
2016-Aug-20 07:00N 40°23' W 043°01'2 1.6 1009.4
2016-Aug-20 06:00N 40°22' W 043°03'3 2.6 1008.9
2016-Aug-20 05:00N 40°20' W 043°05'   1008.5

Dump ship's entire track history